createdAt,value
2022-09-22T00:00:39.300Z,19.73
2022-09-22T00:03:18.539Z,21.23
2022-09-22T00:06:08.889Z,23.05
2022-09-22T00:08:43.201Z,20.35
2022-09-22T00:11:22.882Z,20.10
2022-09-22T00:14:03.481Z,22.92
2022-09-22T00:16:37.404Z,25.08
2022-09-22T00:19:32.225Z,26.10
2022-09-22T00:22:05.946Z,34.88
2022-09-22T00:27:11.408Z,40.08
2022-09-22T00:29:48.915Z,49.20
2022-09-22T00:32:30.265Z,49.08
2022-09-22T00:35:03.222Z,52.63
2022-09-22T00:37:41.355Z,38.33
2022-09-22T00:40:17.977Z,42.33
2022-09-22T00:43:14.667Z,33.25
2022-09-22T00:45:51.472Z,32.05
2022-09-22T00:48:26.215Z,36.83
2022-09-22T00:51:06.255Z,36.67
2022-09-22T00:53:45.425Z,30.42
2022-09-22T00:56:24.217Z,30.55
2022-09-22T00:59:21.734Z,29.45
2022-09-22T01:02:08.829Z,24.65
2022-09-22T01:04:44.719Z,26.95
2022-09-22T01:07:18.398Z,26.02
2022-09-22T01:12:33.903Z,24.65
2022-09-22T01:15:30.836Z,25.90
2022-09-22T01:18:23.803Z,26.40
2022-09-22T01:21:22.190Z,23.35
2022-09-22T01:24:26.218Z,24.63
2022-09-22T01:27:02.437Z,23.45
2022-09-22T01:30:28.155Z,28.38
2022-09-22T01:33:06.634Z,28.90
2022-09-22T01:35:56.959Z,29.88
2022-09-22T01:38:58.758Z,32.72
2022-09-22T01:42:03.332Z,35.35
2022-09-22T01:44:42.688Z,30.23
2022-09-22T01:47:34.311Z,36.50
2022-09-22T01:50:21.042Z,39.03
2022-09-22T01:53:01.547Z,42.35
2022-09-22T01:55:41.224Z,48.80
2022-09-22T01:58:24.568Z,47.25
2022-09-22T02:01:13.627Z,51.78
2022-09-22T02:04:00.338Z,48.85
2022-09-22T02:06:51.179Z,52.22
2022-09-22T02:09:26.410Z,52.30
2022-09-22T02:12:01.731Z,53.38
2022-09-22T02:14:34.609Z,40.92
2022-09-22T02:17:14.532Z,45.88
2022-09-22T02:19:50.539Z,46.38
2022-09-22T02:22:28.773Z,44.83
2022-09-22T02:25:04.267Z,41.13
2022-09-22T02:27:41.019Z,43.00
2022-09-22T02:30:23.714Z,37.75
2022-09-22T02:33:02.250Z,39.85
2022-09-22T02:35:40.111Z,42.88
2022-09-22T02:38:25.715Z,46.30
2022-09-22T02:41:12.565Z,41.92
2022-09-22T02:43:51.946Z,49.88
2022-09-22T02:46:27.474Z,45.70
2022-09-22T02:49:06.272Z,49.55
2022-09-22T02:51:39.636Z,50.90
2022-09-22T02:54:21.759Z,52.53
2022-09-22T02:57:07.495Z,54.92
2022-09-22T02:59:40.033Z,56.23
2022-09-22T03:02:18.377Z,55.58
2022-09-22T03:04:59.115Z,58.47
2022-09-22T03:07:36.609Z,57.40
2022-09-22T03:10:12.196Z,63.20
2022-09-22T03:13:09.156Z,61.58
2022-09-22T03:15:53.858Z,60.70
2022-09-22T03:18:31.436Z,59.33
2022-09-22T03:21:07.018Z,61.45
2022-09-22T03:23:48.414Z,59.05
2022-09-22T03:26:25.503Z,65.80
2022-09-22T03:29:00.581Z,79.63
2022-09-22T03:31:40.471Z,79.97
2022-09-22T03:34:12.832Z,75.88
2022-09-22T03:36:52.624Z,75.32
2022-09-22T03:39:30.460Z,74.68
2022-09-22T03:42:08.395Z,74.07
2022-09-22T03:44:52.507Z,72.13
2022-09-22T03:47:30.698Z,76.93
2022-09-22T03:50:06.461Z,65.50
2022-09-22T03:52:40.267Z,70.72
2022-09-22T03:58:08.069Z,66.20
2022-09-22T04:00:44.239Z,62.25
2022-09-22T04:03:16.773Z,66.32
2022-09-22T04:05:55.996Z,67.65
2022-09-22T04:08:35.298Z,63.70
2022-09-22T04:14:01.543Z,63.55
2022-09-22T04:16:42.766Z,58.78
2022-09-22T04:19:14.158Z,56.55
2022-09-22T04:21:56.897Z,64.40
2022-09-22T04:24:33.382Z,57.33
2022-09-22T04:27:20.911Z,58.25
2022-09-22T04:30:03.242Z,63.75
2022-09-22T04:32:36.896Z,63.97
2022-09-22T04:37:56.728Z,60.75
2022-09-22T04:40:42.619Z,63.67
2022-09-22T04:43:15.708Z,62.15
2022-09-22T04:45:49.037Z,73.85
2022-09-22T04:48:30.281Z,69.47
2022-09-22T04:51:08.074Z,65.53
2022-09-22T04:53:43.342Z,69.82
2022-09-22T04:56:18.575Z,68.97
2022-09-22T04:58:56.732Z,69.30
2022-09-22T05:01:27.474Z,70.57
2022-09-22T05:04:08.111Z,69.07
2022-09-22T05:06:39.666Z,66.40
2022-09-22T05:09:23.076Z,68.05
2022-09-22T05:12:02.681Z,71.25
2022-09-22T05:14:40.104Z,65.50
2022-09-22T05:17:16.384Z,62.50
2022-09-22T05:19:50.076Z,72.90
2022-09-22T05:22:23.074Z,68.10
2022-09-22T05:25:04.374Z,62.80
2022-09-22T05:27:38.163Z,69.60
2022-09-22T05:30:17.146Z,74.72
2022-09-22T05:32:52.806Z,74.95
2022-09-22T05:35:36.877Z,75.05
2022-09-22T05:38:09.449Z,79.95
2022-09-22T05:40:39.649Z,115.32
2022-09-22T05:43:18.298Z,139.07
2022-09-22T05:45:50.892Z,163.95
2022-09-22T05:48:32.745Z,182.30
2022-09-22T05:51:16.027Z,180.57
2022-09-22T05:53:57.638Z,165.73
2022-09-22T05:56:31.375Z,170.43
2022-09-22T05:59:06.726Z,169.82
2022-09-22T06:01:39.557Z,134.93
2022-09-22T06:04:18.589Z,99.75
2022-09-22T06:06:56.449Z,90.28
2022-09-22T06:09:33.979Z,77.20
2022-09-22T06:12:13.055Z,58.83
2022-09-22T06:14:52.237Z,57.65
2022-09-22T06:17:27.879Z,42.10
2022-09-22T06:19:58.721Z,44.58
2022-09-22T06:22:31.376Z,22.08
2022-09-22T06:25:05.572Z,17.25
2022-09-22T06:27:40.843Z,15.82
2022-09-22T06:30:13.609Z,15.48
2022-09-22T06:32:54.346Z,15.20
2022-09-22T06:35:38.789Z,14.52
2022-09-22T06:38:17.277Z,13.98
2022-09-22T06:40:45.935Z,10.35
2022-09-22T06:43:27.734Z,10.98
2022-09-22T06:46:08.640Z,12.60
2022-09-22T06:48:35.915Z,14.05
2022-09-22T06:51:10.827Z,13.82
2022-09-22T06:53:48.602Z,9.20
2022-09-22T06:56:20.399Z,10.63
2022-09-22T06:59:09.544Z,11.25
2022-09-22T07:01:43.983Z,9.55
2022-09-22T07:04:20.752Z,7.90
2022-09-22T07:06:50.467Z,7.70
2022-09-22T07:09:25.664Z,6.95
2022-09-22T07:11:58.654Z,8.68
2022-09-22T07:14:35.590Z,9.48
2022-09-22T07:17:08.161Z,9.23
2022-09-22T07:19:38.376Z,8.75
2022-09-22T07:22:11.075Z,9.63
2022-09-22T07:24:44.413Z,6.53
2022-09-22T07:27:26.309Z,5.68
2022-09-22T07:29:57.721Z,7.07
2022-09-22T07:32:25.006Z,7.43
2022-09-22T07:34:56.327Z,4.68
2022-09-22T07:37:42.342Z,6.85
2022-09-22T07:40:23.334Z,5.15
2022-09-22T07:43:01.595Z,8.98
2022-09-22T07:45:34.114Z,6.95
2022-09-22T07:48:37.435Z,5.50
2022-09-22T07:51:16.507Z,5.78
2022-09-22T07:54:10.181Z,8.10
2022-09-22T07:56:52.970Z,6.30
2022-09-22T07:59:22.593Z,6.05
2022-09-22T08:01:53.177Z,5.72
2022-09-22T08:04:24.282Z,5.35
2022-09-22T08:07:00.145Z,5.90
2022-09-22T08:09:34.267Z,6.65
2022-09-22T08:12:10.689Z,4.38
2022-09-22T08:14:50.042Z,5.00
2022-09-22T08:17:30.931Z,5.22
2022-09-22T08:20:10.611Z,4.95
2022-09-22T08:22:44.264Z,3.88
2022-09-22T08:25:12.861Z,7.05
2022-09-22T08:27:48.099Z,3.00
2022-09-22T08:30:26.804Z,4.35
2022-09-22T08:33:00.843Z,5.38
2022-09-22T08:35:41.503Z,3.22
2022-09-22T08:38:20.099Z,4.75
2022-09-22T08:40:59.435Z,2.95
2022-09-22T08:43:29.924Z,4.05
2022-09-22T08:45:58.100Z,4.07
2022-09-22T08:48:50.063Z,4.38
2022-09-22T08:51:52.367Z,4.32
2022-09-22T08:54:35.458Z,3.25
2022-09-22T08:57:11.617Z,4.80
2022-09-22T09:00:20.060Z,2.38
2022-09-22T09:03:23.500Z,4.85
2022-09-22T09:06:36.724Z,6.05
2022-09-22T09:09:29.693Z,4.18
2022-09-22T09:12:16.367Z,2.53
2022-09-22T09:15:17.188Z,3.15
2022-09-22T09:17:50.460Z,2.60
2022-09-22T09:20:49.377Z,3.70
2022-09-22T09:23:24.756Z,7.78
2022-09-22T09:26:03.670Z,2.65
2022-09-22T09:28:48.002Z,4.10
2022-09-22T09:31:29.081Z,8.77
2022-09-22T09:34:07.863Z,3.58
2022-09-22T09:36:45.634Z,4.78
2022-09-22T09:39:40.355Z,3.58
2022-09-22T09:42:29.394Z,3.92
2022-09-22T09:45:02.573Z,2.50
2022-09-22T09:47:49.350Z,4.55
2022-09-22T09:50:26.742Z,3.67
2022-09-22T09:52:58.411Z,2.38
2022-09-22T09:55:48.137Z,7.65
2022-09-22T09:58:41.760Z,3.65
2022-09-22T10:01:14.491Z,5.68
2022-09-22T10:03:58.187Z,4.35
2022-09-22T10:06:26.594Z,4.05
2022-09-22T10:08:59.526Z,3.47
2022-09-22T10:11:38.752Z,2.10
2022-09-22T10:14:19.378Z,4.78
2022-09-22T10:16:55.377Z,2.60
2022-09-22T10:19:32.261Z,3.75
2022-09-22T10:22:29.463Z,3.83
2022-09-22T10:24:59.371Z,3.15
2022-09-22T10:27:30.162Z,3.72
2022-09-22T10:30:23.260Z,3.42
2022-09-22T10:33:13.622Z,3.17
2022-09-22T10:36:11.784Z,2.50
2022-09-22T10:38:49.225Z,3.15
2022-09-22T10:41:29.213Z,3.17
2022-09-22T10:44:15.462Z,2.67
2022-09-22T10:47:22.487Z,1.93
2022-09-22T10:50:18.740Z,2.28
2022-09-22T10:53:10.343Z,2.45
2022-09-22T10:56:18.778Z,1.85
2022-09-22T10:59:10.109Z,1.63
2022-09-22T11:02:16.264Z,1.73
2022-09-22T11:05:08.124Z,3.00
2022-09-22T11:08:39.046Z,2.67
2022-09-22T11:11:46.550Z,2.17
2022-09-22T11:14:43.240Z,2.97
2022-09-22T11:17:57.324Z,3.58
2022-09-22T11:20:40.318Z,2.05
2022-09-22T11:23:34.855Z,4.03
2022-09-22T11:26:31.590Z,3.13
2022-09-22T11:29:20.552Z,1.75
2022-09-22T11:32:19.878Z,1.73
2022-09-22T11:35:11.884Z,3.80
2022-09-22T11:38:12.822Z,2.03
2022-09-22T11:40:54.677Z,4.05
2022-09-22T11:43:28.482Z,3.22
2022-09-22T11:46:19.937Z,5.65
2022-09-22T11:49:10.064Z,3.20
2022-09-22T11:52:09.631Z,2.28
2022-09-22T11:54:51.643Z,2.63
2022-09-22T11:57:26.370Z,2.53
2022-09-22T12:00:08.999Z,4.30
2022-09-22T12:02:49.308Z,6.63
2022-09-22T12:05:37.200Z,3.10
2022-09-22T12:08:14.210Z,4.38
2022-09-22T12:10:45.717Z,3.30
2022-09-22T12:13:23.185Z,3.80
2022-09-22T12:16:14.083Z,5.30
2022-09-22T12:18:57.650Z,3.13
2022-09-22T12:21:48.049Z,3.67
2022-09-22T12:24:16.131Z,3.00
2022-09-22T12:26:46.346Z,3.35
2022-09-22T12:29:19.422Z,4.28
2022-09-22T12:31:49.163Z,2.60
2022-09-22T12:34:22.577Z,4.70
2022-09-22T12:36:59.913Z,5.05
2022-09-22T12:39:32.429Z,4.43
2022-09-22T12:42:19.029Z,3.45
2022-09-22T12:45:00.800Z,3.45
2022-09-22T12:47:33.630Z,2.72
2022-09-22T12:50:06.123Z,6.33
2022-09-22T12:52:52.967Z,3.00
2022-09-22T12:55:45.199Z,3.38
2022-09-22T12:58:30.550Z,3.67
2022-09-22T13:01:32.739Z,4.07
2022-09-22T13:04:17.337Z,7.72
2022-09-22T13:06:47.467Z,7.20
2022-09-22T13:09:25.656Z,6.03
2022-09-22T13:12:17.648Z,3.22
2022-09-22T13:14:59.679Z,4.00
2022-09-22T13:17:46.811Z,2.80
2022-09-22T13:20:25.562Z,5.88
2022-09-22T13:22:52.727Z,5.82
2022-09-22T13:25:36.541Z,3.60
2022-09-22T13:28:15.823Z,2.85
2022-09-22T13:30:47.136Z,3.08
2022-09-22T13:33:31.421Z,2.97
2022-09-22T13:36:16.687Z,2.80
2022-09-22T13:38:51.164Z,3.75
2022-09-22T13:41:26.532Z,4.88
2022-09-22T13:44:08.035Z,3.75
2022-09-22T13:46:57.059Z,4.32
2022-09-22T13:49:34.521Z,3.55
2022-09-22T13:52:20.592Z,3.13
2022-09-22T13:55:12.182Z,2.20
2022-09-22T13:57:53.529Z,2.72
2022-09-22T14:01:01.493Z,4.57
2022-09-22T14:03:27.359Z,3.95
2022-09-22T14:05:56.784Z,3.15
2022-09-22T14:08:34.006Z,2.20
2022-09-22T14:11:04.318Z,3.70
2022-09-22T14:14:02.337Z,5.13
2022-09-22T14:16:59.120Z,3.88
2022-09-22T14:19:47.595Z,3.42
2022-09-22T14:22:42.131Z,3.10
2022-09-22T14:25:20.780Z,5.45
2022-09-22T14:27:55.634Z,5.93
2022-09-22T14:30:30.945Z,4.25
2022-09-22T14:33:06.981Z,2.53
2022-09-22T14:35:54.952Z,2.83
2022-09-22T14:38:24.898Z,4.22
2022-09-22T14:41:39.376Z,3.10
2022-09-22T14:44:53.001Z,7.57
2022-09-22T14:47:46.431Z,3.55
2022-09-22T14:50:26.452Z,2.70
2022-09-22T14:53:14.329Z,4.90
2022-09-22T14:56:07.282Z,5.47
2022-09-22T14:58:41.667Z,2.75
2022-09-22T15:01:45.177Z,5.50
2022-09-22T15:04:33.039Z,2.25
2022-09-22T15:07:08.045Z,4.25
2022-09-22T15:10:17.847Z,3.33
2022-09-22T15:15:34.733Z,3.63
2022-09-22T15:18:19.652Z,5.35
2022-09-22T15:24:15.437Z,3.95
2022-09-22T15:26:52.446Z,5.85
2022-09-22T15:29:34.035Z,4.07
2022-09-22T15:32:16.013Z,5.18
2022-09-22T15:34:55.141Z,3.05
2022-09-22T15:37:42.344Z,7.07
2022-09-22T15:40:24.742Z,6.82
2022-09-22T15:43:13.485Z,5.20
2022-09-22T15:45:52.823Z,5.90
2022-09-22T15:51:23.570Z,6.75
2022-09-22T15:53:59.258Z,4.72
2022-09-22T15:56:33.241Z,3.80
2022-09-22T15:59:19.191Z,5.90
2022-09-22T16:01:54.010Z,4.78
2022-09-22T16:04:21.803Z,4.22
2022-09-22T16:07:16.500Z,5.40
2022-09-22T16:09:49.428Z,3.97
2022-09-22T16:12:18.676Z,3.90
2022-09-22T16:14:57.232Z,7.15
2022-09-22T16:17:45.782Z,4.78
2022-09-22T16:20:27.734Z,4.65
2022-09-22T16:23:05.229Z,4.22
2022-09-22T16:25:42.269Z,6.15
2022-09-22T16:28:18.294Z,7.70
2022-09-22T16:30:53.570Z,9.55
2022-09-22T16:33:26.534Z,9.93
2022-09-22T16:35:56.572Z,8.95
2022-09-22T16:38:26.813Z,9.18
2022-09-22T16:41:04.735Z,9.77
2022-09-22T16:43:37.242Z,12.82
2022-09-22T16:46:36.135Z,7.43
2022-09-22T16:49:22.589Z,6.95
2022-09-22T16:51:54.439Z,8.32
2022-09-22T16:54:28.625Z,11.30
2022-09-22T16:56:56.334Z,8.15
2022-09-22T16:59:31.955Z,9.82
2022-09-22T17:02:04.854Z,10.82
2022-09-22T17:04:32.501Z,10.38
2022-09-22T17:07:08.789Z,13.23
2022-09-22T17:12:32.144Z,10.70
2022-09-22T17:15:05.449Z,9.88
2022-09-22T17:17:45.377Z,10.70
2022-09-22T17:20:13.903Z,10.95
2022-09-22T17:22:47.163Z,11.27
2022-09-22T17:25:16.690Z,10.45
2022-09-22T17:27:49.859Z,11.05
2022-09-22T17:30:25.381Z,12.63
2022-09-22T17:32:59.217Z,11.48
2022-09-22T17:35:31.650Z,11.27
2022-09-22T17:38:06.308Z,16.95
2022-09-22T17:40:47.085Z,16.35
2022-09-22T17:43:15.351Z,14.02
2022-09-22T17:45:55.835Z,14.80
2022-09-22T17:48:50.271Z,18.88
2022-09-22T17:51:56.100Z,18.73
2022-09-22T17:55:00.826Z,52.75
2022-09-22T18:00:13.725Z,20.52
2022-09-22T18:02:49.981Z,14.95
2022-09-22T18:05:29.948Z,16.35
2022-09-22T18:08:10.600Z,14.40
2022-09-22T18:10:46.174Z,16.45
2022-09-22T18:13:23.203Z,16.85
2022-09-22T18:16:06.140Z,16.88
2022-09-22T18:18:41.269Z,18.83
2022-09-22T18:21:16.147Z,14.63
2022-09-22T18:23:51.792Z,16.83
2022-09-22T18:26:39.784Z,16.33
2022-09-22T18:29:18.232Z,16.35
2022-09-22T18:31:48.705Z,15.23
2022-09-22T18:34:34.941Z,20.73
2022-09-22T18:37:27.504Z,20.13
2022-09-22T18:40:08.118Z,27.02
2022-09-22T18:42:50.271Z,24.15
2022-09-22T18:45:17.474Z,29.17
2022-09-22T18:47:58.703Z,29.25
2022-09-22T18:50:35.838Z,32.60
2022-09-22T18:53:17.928Z,30.27
2022-09-22T18:55:53.425Z,26.55
2022-09-22T18:58:29.275Z,24.30
2022-09-22T19:01:04.473Z,25.02
2022-09-22T19:03:41.503Z,26.02
2022-09-22T19:06:20.757Z,22.67
2022-09-22T19:09:04.085Z,22.95
2022-09-22T19:11:38.566Z,27.45
2022-09-22T19:14:17.925Z,24.60
2022-09-22T19:16:59.608Z,24.05
2022-09-22T19:19:46.051Z,20.15
2022-09-22T19:22:21.817Z,19.92
2022-09-22T19:25:00.482Z,19.13
2022-09-22T19:27:36.689Z,16.08
2022-09-22T19:30:24.069Z,20.40
2022-09-22T19:33:05.911Z,19.67
2022-09-22T19:35:41.497Z,27.02
2022-09-22T19:38:25.873Z,28.20
2022-09-22T19:41:06.194Z,24.20
2022-09-22T19:43:50.175Z,25.50
2022-09-22T19:54:16.130Z,25.13
2022-09-22T19:56:55.053Z,22.63
2022-09-22T19:59:32.780Z,24.05
2022-09-22T20:02:14.207Z,21.45
2022-09-22T20:04:56.051Z,22.15
2022-09-22T20:07:34.749Z,22.92
2022-09-22T20:10:18.678Z,21.35
2022-09-22T20:15:31.629Z,20.13
2022-09-22T20:18:05.593Z,25.48
2022-09-22T20:20:51.181Z,24.85
2022-09-22T20:23:24.342Z,25.17
2022-09-22T20:25:57.387Z,17.73
2022-09-22T20:28:36.180Z,23.48
2022-09-22T20:31:14.352Z,25.40
2022-09-22T20:33:55.647Z,23.50
2022-09-22T20:36:35.987Z,24.48
2022-09-22T20:39:18.102Z,40.13
2022-09-22T20:41:55.836Z,46.10
2022-09-22T20:44:32.295Z,50.40
2022-09-22T20:47:07.262Z,40.13
2022-09-22T20:49:45.915Z,43.78
2022-09-22T20:52:27.959Z,42.28
2022-09-22T20:55:05.103Z,46.25
2022-09-22T20:57:42.828Z,47.47
2022-09-22T21:00:19.098Z,50.60
2022-09-22T21:03:01.667Z,50.00
2022-09-22T21:05:37.048Z,49.75
2022-09-22T21:08:34.194Z,45.47
2022-09-22T21:11:08.259Z,47.45
2022-09-22T21:13:46.423Z,48.40
2022-09-22T21:16:38.470Z,59.33
2022-09-22T21:19:12.843Z,51.08
2022-09-22T21:21:45.427Z,46.30
2022-09-22T21:24:31.111Z,43.75
2022-09-22T21:27:14.588Z,52.58
2022-09-22T21:29:45.096Z,60.80
2022-09-22T21:32:24.632Z,61.20
2022-09-22T21:35:01.590Z,61.13
2022-09-22T21:37:40.350Z,57.30
2022-09-22T21:40:17.713Z,50.83
2022-09-22T21:42:52.147Z,50.47
2022-09-22T21:45:28.356Z,52.00
2022-09-22T21:48:06.742Z,52.88
2022-09-22T21:50:42.016Z,49.05
2022-09-22T21:53:20.476Z,55.13
2022-09-22T21:56:11.680Z,54.03
2022-09-22T21:58:45.178Z,51.55
2022-09-22T22:01:29.335Z,52.75
2022-09-22T22:04:17.862Z,52.95
2022-09-22T22:06:52.176Z,53.55
2022-09-22T22:09:27.693Z,56.15
2022-09-22T22:12:02.988Z,55.72
2022-09-22T22:14:49.282Z,56.50
2022-09-22T22:17:21.737Z,57.33
2022-09-22T22:19:59.221Z,56.17
2022-09-22T22:22:29.371Z,53.60
2022-09-22T22:25:07.168Z,60.28
2022-09-22T22:27:50.622Z,62.03
2022-09-22T22:30:30.950Z,54.92
2022-09-22T22:33:12.548Z,58.17
2022-09-22T22:36:01.943Z,59.08
2022-09-22T22:38:35.967Z,51.30
2022-09-22T22:41:15.342Z,64.07
2022-09-22T22:43:54.625Z,65.15
2022-09-22T22:46:27.543Z,61.10
2022-09-22T22:49:00.397Z,66.18
2022-09-22T22:51:43.235Z,72.70
2022-09-22T22:54:14.647Z,75.00
2022-09-22T22:56:52.493Z,78.25
2022-09-22T22:59:27.889Z,88.00
2022-09-22T23:02:06.484Z,83.22
2022-09-22T23:04:41.960Z,82.35
2022-09-22T23:07:17.669Z,85.18
2022-09-22T23:10:06.554Z,93.25
2022-09-22T23:12:43.976Z,84.18
2022-09-22T23:15:26.355Z,87.13
2022-09-22T23:18:07.487Z,87.68
2022-09-22T23:20:45.057Z,86.75
2022-09-22T23:23:28.703Z,86.65
2022-09-22T23:26:18.058Z,82.65
2022-09-22T23:28:52.678Z,81.55
2022-09-22T23:31:25.979Z,80.32
2022-09-22T23:34:09.119Z,84.65
2022-09-22T23:36:48.246Z,78.97
2022-09-22T23:39:23.231Z,76.20
2022-09-22T23:41:56.402Z,72.88
2022-09-22T23:44:42.322Z,78.90
2022-09-22T23:47:20.837Z,74.25
2022-09-22T23:50:06.555Z,69.40
2022-09-22T23:52:45.831Z,70.63
2022-09-22T23:55:26.855Z,75.97
2022-09-22T23:57:58.180Z,68.93
